Flight Track Log - Related Links

Times and Time Zones

All times are in EDT time to prevent confusion due to time zone crossing. See the UAL4528 flight status page for this flight to view local times or setup timezone preferences in your user account.

Time Position Orientation Groundspeed Altitude Reporting Facility
EDT Latitude Longitude Course Direction KTS MPH feet Rate Location/Type
Fri 02:36:09 PM 35.8644 -78.8164 262° West 155 178 1,200  Level Washington Center
Fri 02:36:46 PM 35.8450 -78.8411 226° Southwest 169 194 2,300 1,531 Climbing Washington Center
Fri 02:37:47 PM 35.8183 -78.9017 242° Southwest 226 260 3,700 1,835 Climbing Washington Center
Fri 02:38:47 PM 35.8222 -78.9811 273° West 251 289 6,000 2,224 Climbing Washington Center
Fri 02:39:00 PM 35.8397 -79.2196 263° West  Level FlightAware Approximate
Fri 02:39:43 PM 35.8264 -79.0581 274° West 257 296 8,000  Level Washington Center
Fri 02:40:00 PM 35.8302 -79.3287 262° West  Level FlightAware Approximate
Fri 02:40:43 PM 35.8300 -79.1428 273° West 247 284 9,600  Level Washington Center
Fri 02:41:00 PM 35.8181 -79.4374 262° West  Level FlightAware Approximate
Fri 02:41:43 PM 35.8319 -79.2172 272° West 252 290 11,300  Level Washington Center
Fri 02:42:43 PM 35.8353 -79.3147 272° West 257 296 13,300 1,350 Climbing Washington Center
Fri 02:43:43 PM 35.8286 -79.3964 264° West 257 296 14,000 662 Climbing Washington Center
Fri 02:45:17 PM 35.8100 -79.5706 263° West 303 349 15,000 779 Climbing Atlanta Center
Fri 02:46:17 PM 35.7967 -79.6583 259° West 312 359 16,000 1,000 Climbing Atlanta Center
Fri 02:47:17 PM 35.7647 -79.7597 249° West 312 359 17,000 1,000 Climbing Atlanta Center
Fri 02:48:17 PM 35.7261 -79.8514 243° Southwest 312 359 18,000 1,050 Climbing Atlanta Center
Fri 02:49:17 PM 35.6817 -79.9608 243° Southwest 322 371 19,100 900 Climbing Atlanta Center
Fri 02:50:17 PM 35.6394 -80.0653 244° Southwest 335 386 19,800 750 Climbing Atlanta Center
Fri 02:51:17 PM 35.5903 -80.1597 237° Southwest 341 392 20,600 850 Climbing Atlanta Center
Fri 02:52:17 PM 35.5750 -80.2728 261° West 330 380 21,500 950 Climbing Atlanta Center
Fri 02:53:17 PM 35.5639 -80.3881 263° West 341 392 22,500 950 Climbing Atlanta Center
Fri 02:54:17 PM 35.5525 -80.4983 263° West 341 392 23,400 950 Climbing Atlanta Center
Fri 02:55:17 PM 35.5411 -80.6111 263° West 341 392 24,400 1,000 Climbing Atlanta Center
Fri 02:56:17 PM 35.5275 -80.7214 261° West 330 380 25,400 1,000 Climbing Atlanta Center
Fri 02:57:17 PM 35.5178 -80.8342 264° West 330 380 26,400 900 Climbing Atlanta Center
Fri 02:58:17 PM 35.5058 -80.9289 261° West 335 386 27,200 900 Climbing Atlanta Center
Fri 02:59:17 PM 35.4917 -81.0367 261° West 329 379 28,200 1,000 Climbing Atlanta Center
Fri 03:00:17 PM 35.4797 -81.1467 262° West 329 379 29,200 1,000 Climbing Atlanta Center
Fri 03:01:17 PM 35.4636 -81.2669 261° West 329 379 30,200 1,000 Climbing Atlanta Center
Fri 03:02:17 PM 35.4556 -81.3744 265° West 329 379 31,200 1,000 Climbing Atlanta Center
Fri 03:03:17 PM 35.4433 -81.4819 262° West 329 379 32,200 1,000 Climbing Atlanta Center
Fri 03:04:17 PM 35.4308 -81.5842 261° West 317 365 33,200 1,000 Climbing Atlanta Center
Fri 03:05:17 PM 35.4222 -81.6814 264° West 301 346 34,200 1,000 Climbing Atlanta Center
Fri 03:06:17 PM 35.4097 -81.7811 261° West 292 336 35,200 900 Climbing Atlanta Center
Fri 03:07:17 PM 35.3989 -81.8756 262° West 292 336 36,000 400 Climbing Atlanta Center
Fri 03:08:17 PM 35.3897 -81.9575 262° West 286 329 36,000  Level Atlanta Center
Fri 03:09:17 PM 35.3767 -82.0569 261° West 292 336 36,000  Level Atlanta Center
Fri 03:10:17 PM 35.3639 -82.1617 262° West 303 349 36,000  Level Atlanta Center
Fri 03:11:17 PM 35.3528 -82.2689 263° West 316 364 36,000  Level Atlanta Center
Fri 03:12:17 PM 35.3378 -82.3814 261° West 332 382 36,000  Level Atlanta Center
Fri 03:13:17 PM 35.3247 -82.4961 262° West 337 388 36,000  Level Atlanta Center
Fri 03:14:17 PM 35.3075 -82.6264 261° West 342 394 36,000  Level Atlanta Center
Fri 03:15:17 PM 35.2919 -82.7386 260° West 360 414 36,000  Level Atlanta Center
Fri 03:16:17 PM 35.2764 -82.8558 261° West 365 420 36,000  Level Atlanta Center
Fri 03:17:17 PM 35.2589 -82.9933 261° West 372 428 36,000  Level Atlanta Center
Fri 03:18:17 PM 35.2411 -83.1183 260° West 372 428 36,000  Level Atlanta Center
Fri 03:19:17 PM 35.2294 -83.2303 263° West 372 428 36,000  Level Atlanta Center
Fri 03:20:17 PM 35.2136 -83.3525 261° West 372 428 36,000  Level Atlanta Center
Fri 03:21:17 PM 35.1975 -83.4669 260° West 367 422 36,000  Level Atlanta Center
Fri 03:22:17 PM 35.1811 -83.5814 260° West 355 409 36,000  Level Atlanta Center
Fri 03:23:17 PM 35.1650 -83.6958 260° West 355 409 36,000  Level Atlanta Center
Fri 03:24:17 PM 35.1486 -83.8203 261° West 355 409 36,000  Level Atlanta Center
Fri 03:25:17 PM 35.1342 -83.9347 261° West 355 409 36,000  Level Atlanta Center
Fri 03:26:17 PM 35.1194 -84.0489 261° West 355 409 36,000  Level Atlanta Center
Fri 03:27:17 PM 35.1006 -84.1631 259° West 355 409 36,000  Level Atlanta Center
Fri 03:28:17 PM 35.0858 -84.2800 261° West 355 409 36,000  Level Atlanta Center
Fri 03:29:17 PM 35.0689 -84.3914 260° West 355 409 36,000  Level Atlanta Center
Fri 03:30:17 PM 35.0539 -84.5081 261° West 355 409 36,000  Level Atlanta Center
Fri 03:31:17 PM 35.0367 -84.6247 260° West 355 409 36,000  Level Atlanta Center
Fri 03:32:17 PM 35.0214 -84.7364 261° West 355 409 36,000  Level Atlanta Center
Fri 03:33:17 PM 35.0061 -84.8503 261° West 355 409 36,000  Level Atlanta Center
Fri 03:34:17 PM 34.9908 -84.9617 261° West 355 409 36,000  Level Atlanta Center
Fri 03:35:17 PM 34.9733 -85.0706 259° West 350 403 36,000  Level Atlanta Center
Fri 03:36:17 PM 34.9453 -85.1764 252° West 339 390 36,000  Level Atlanta Center
Fri 03:37:17 PM 34.8861 -85.2567 228° Southwest 321 369 36,000  Level Atlanta Center
Fri 03:38:17 PM 34.8289 -85.3369 229° Southwest 321 369 36,000  Level Atlanta Center
Fri 03:39:17 PM 34.7736 -85.4169 230° Southwest 321 369 36,000  Level Atlanta Center
Fri 03:40:17 PM 34.7164 -85.4944 228° Southwest 321 369 36,000  Level Atlanta Center
Fri 03:41:17 PM 34.6592 -85.5692 227° Southwest 311 358 36,000  Level Atlanta Center
Fri 03:42:17 PM 34.6039 -85.6489 230° Southwest 311 358 36,000  Level Atlanta Center
Fri 03:43:17 PM 34.5467 -85.7258 228° Southwest 311 358 36,000  Level Atlanta Center
Fri 03:44:17 PM 34.4892 -85.8028 228° Southwest 311 358 36,000  Level Atlanta Center
Fri 03:45:17 PM 34.4403 -85.8675 228° Southwest 300 345 36,000  Level Atlanta Center
Fri 03:46:17 PM 34.3806 -85.9442 227° Southwest 305 351 36,000  Level Atlanta Center
Fri 03:47:17 PM 34.3253 -86.0208 229° Southwest 310 357 36,000  Level Atlanta Center
Fri 03:48:17 PM 34.2697 -86.1000 230° Southwest 310 357 36,000  Level Atlanta Center
Fri 03:49:17 PM 34.2119 -86.1739 227° Southwest 310 357 36,000  Level Atlanta Center
Fri 03:50:17 PM 34.1542 -86.2528 229° Southwest 305 351 36,000  Level Atlanta Center
Fri 03:51:17 PM 34.0964 -86.3292 228° Southwest 305 351 36,000  Level Atlanta Center
Fri 03:52:17 PM 34.0386 -86.4053 228° Southwest 305 351 36,000  Level Atlanta Center
Fri 03:53:17 PM 33.9767 -86.4886 228° Southwest 310 357 36,000  Level Atlanta Center
Fri 03:54:17 PM 33.9206 -86.5672 229° Southwest 310 357 36,000  Level Atlanta Center
Fri 03:55:17 PM 33.8606 -86.6456 227° Southwest 310 357 36,000  Level Atlanta Center
Fri 03:56:17 PM 33.8006 -86.7211 226° Southwest 310 357 36,000  Level Atlanta Center
Fri 03:57:17 PM 33.7444 -86.7992 229° Southwest 310 357 36,000  Level Atlanta Center
Fri 03:58:17 PM 33.6844 -86.8772 227° Southwest 310 357 36,000  Level Atlanta Center
Fri 03:59:17 PM 33.6425 -86.9683 241° Southwest 316 364 36,000  Level Atlanta Center
Fri 04:00:17 PM 33.6086 -87.0719 249° West 316 364 36,000  Level Atlanta Center
Fri 04:01:17 PM 33.5750 -87.1728 248° West 329 379 36,000  Level Atlanta Center
Fri 04:02:17 PM 33.5389 -87.2739 247° West 334 384 36,000  Level Atlanta Center
Fri 04:04:05 PM 33.4772 -87.4583 248° West 335 386 36,000  Level Memphis Center
Fri 04:05:05 PM 33.4419 -87.5617 248° West 335 386 36,000  Level Memphis Center
Fri 04:06:05 PM 33.4086 -87.6597 248° West 335 386 36,000  Level Memphis Center
Fri 04:07:05 PM 33.3733 -87.7628 248° West 335 386 36,000  Level Memphis Center
Fri 04:08:05 PM 33.3378 -87.8633 247° West 335 386 36,000  Level Memphis Center
Fri 04:09:05 PM 33.3022 -87.9636 247° West 335 386 36,000  Level Memphis Center
Fri 04:10:05 PM 33.2664 -88.0642 247° West 335 386 36,000 -550 Level Memphis Center
Fri 04:11:05 PM 33.2308 -88.1642 247° West 335 386 34,900 -1,000 Descending Memphis Center
Fri 04:12:05 PM 33.1992 -88.2719 251° West 335 386 34,000 -450 Descending Memphis Center
Fri 04:13:05 PM 33.1633 -88.3744 247° West 335 386 34,000  Level Memphis Center
Fri 04:14:05 PM 33.1272 -88.4769 247° West 335 386 34,000  Level Memphis Center
Fri 04:15:05 PM 33.0869 -88.5744 244° Southwest 340 391 34,000  Level Memphis Center
Fri 04:16:05 PM 33.0425 -88.6719 241° Southwest 340 391 34,000  Level Memphis Center
Fri 04:17:05 PM 32.9978 -88.7744 243° Southwest 340 391 34,000  Level Memphis Center
Fri 04:18:05 PM 32.9533 -88.8744 242° Southwest 346 398 34,000  Level Memphis Center
Fri 04:19:05 PM 32.9083 -88.9717 241° Southwest 346 398 34,000  Level Memphis Center
Fri 04:20:05 PM 32.8656 -89.0686 242° Southwest 341 392 34,000  Level Memphis Center
Fri 04:21:05 PM 32.8206 -89.1683 242° Southwest 341 392 34,000  Level Memphis Center
Fri 04:22:05 PM 32.7778 -89.2653 242° Southwest 341 392 34,000  Level Memphis Center
Fri 04:23:05 PM 32.7325 -89.3644 242° Southwest 341 392 34,000  Level Memphis Center
Fri 04:24:05 PM 32.6875 -89.4614 241° Southwest 341 392 34,000  Level Memphis Center
Fri 04:25:05 PM 32.6422 -89.5628 242° Southwest 341 392 34,000  Level Memphis Center
Fri 04:26:05 PM 32.5989 -89.6594 242° Southwest 341 392 34,000  Level Memphis Center
Fri 04:27:05 PM 32.5536 -89.7583 242° Southwest 341 392 34,000  Level Memphis Center
Fri 04:28:07 PM 32.5100 -89.8547 242° Southwest 341 392 34,000  Level Memphis Center
Fri 04:29:05 PM 32.4644 -89.9536 241° Southwest 341 392 34,000  Level Memphis Center
Fri 04:30:05 PM 32.4169 -90.0522 240° Southwest 341 392 34,000  Level Memphis Center
Fri 04:31:05 PM 32.3733 -90.1506 242° Southwest 336 387 34,000  Level Memphis Center
Fri 04:32:05 PM 32.3275 -90.2492 241° Southwest 336 387 34,000  Level Memphis Center
Fri 04:33:05 PM 32.2817 -90.3475 241° Southwest 341 392 34,000  Level Memphis Center
Fri 04:34:05 PM 32.2378 -90.4433 242° Southwest 341 392 34,000  Level Memphis Center
Fri 04:35:05 PM 32.1936 -90.5414 242° Southwest 341 392 34,000  Level Memphis Center
Fri 04:36:05 PM 32.1475 -90.6369 240° Southwest 341 392 34,000  Level Memphis Center
Fri 04:37:05 PM 32.1014 -90.7325 240° Southwest 341 392 34,000  Level Memphis Center
Fri 04:38:19 PM 32.0547 -90.8386 243° Southwest 335 386 34,000  Level Houston Center
Fri 04:39:21 PM 32.0108 -90.9325 241° Southwest 328 377 34,000  Level Houston Center
Fri 04:40:23 PM 31.9586 -91.0450 241° Southwest 328 377 34,000  Level Houston Center
Fri 04:41:25 PM 31.9125 -91.1403 240° Southwest 333 383 34,000  Level Houston Center
Fri 04:42:27 PM 31.8681 -91.2344 241° Southwest 331 381 34,000  Level Houston Center
Fri 04:43:29 PM 31.8222 -91.3317 241° Southwest 338 389 34,000  Level Houston Center
Fri 04:44:31 PM 31.7769 -91.4253 240° Southwest 330 380 34,000  Level Houston Center
Fri 04:45:33 PM 31.7308 -91.5222 241° Southwest 336 387 34,000  Level Houston Center
Fri 04:46:36 PM 31.6758 -91.6378 241° Southwest 339 390 34,000  Level Houston Center
Fri 04:47:38 PM 31.6289 -91.7339 240° Southwest 339 390 34,000  Level Houston Center
Fri 04:48:40 PM 31.5836 -91.8292 241° Southwest 337 388 34,000  Level Houston Center
Fri 04:49:42 PM 31.5369 -91.9261 241° Southwest 340 391 34,000  Level Houston Center
Fri 04:50:44 PM 31.4908 -92.0217 241° Southwest 338 389 34,000  Level Houston Center
Fri 04:51:47 PM 31.4447 -92.1147 240° Southwest 333 383 34,000  Level Houston Center
Fri 04:52:48 PM 31.3903 -92.2267 240° Southwest 331 381 34,000  Level Houston Center
Fri 04:53:50 PM 31.3444 -92.3194 240° Southwest 329 379 34,000  Level Houston Center
Fri 04:54:52 PM 31.2947 -92.4225 241° Southwest 331 381 34,000  Level Houston Center
Fri 04:55:55 PM 31.2514 -92.5147 241° Southwest 325 374 34,000  Level Houston Center
Fri 04:56:57 PM 31.1986 -92.6053 236° Southwest 330 380 34,000  Level Houston Center
Fri 04:57:59 PM 31.1497 -92.6933 237° Southwest 331 381 34,000 -532 Level Houston Center
Fri 04:59:01 PM 31.1383 -92.7958 263° West 321 369 32,900 -1,161 Descending Houston Center
Fri 05:00:03 PM 31.1350 -92.9025 268° West 328 377 31,600 -1,355 Descending Houston Center
Fri 05:01:05 PM 31.1314 -93.0347 268° West 339 390 30,100 -1,306 Descending Houston Center
Fri 05:02:07 PM 31.1294 -93.1478 269° West 347 399 28,900 -1,161 Descending Houston Center
Fri 05:03:09 PM 31.1233 -93.2650 267° West 361 415 27,700 -1,200 Descending Houston Center
Fri 05:04:12 PM 31.0575 -93.3481 227° Southwest 349 402 26,400 -1,200 Descending Houston Center
Fri 05:05:14 PM 30.9883 -93.4306 226° Southwest 356 410 25,200 -1,161 Descending Houston Center
Fri 05:06:16 PM 30.9167 -93.5144 225° Southwest 363 418 24,000 -774 Descending Houston Center
Fri 05:07:18 PM 30.8322 -93.6150 226° Southwest 351 404 23,600 -6,000 Descending Houston Center
Fri 05:08:20 PM 30.7653 -93.6950 226° Southwest 345 397 11,600 -387 Descending Houston Center
Fri 05:09:22 PM 30.6981 -93.7753 226° Southwest 346 398 22,800 5,371 Climbing Houston Center
Fri 05:10:24 PM 30.6283 -93.8575 225° Southwest 353 406 22,700 -677 Descending Houston Center
Fri 05:11:26 PM 30.5600 -93.9383 226° Southwest 349 402 21,400 -1,632 Descending Houston Center
Fri 05:12:29 PM 30.4922 -94.0175 225° Southwest 343 395 19,300 -2,112 Descending Houston Center
Fri 05:13:31 PM 30.4253 -94.0953 225° Southwest 339 390 17,000 -2,602 Descending Houston Center
Fri 05:14:22 PM 30.3600 -94.1736 226° Southwest 342 394 14,400 -2,957 Descending Houston Center
Fri 05:14:40 PM 30.3392 -94.1958 223° Southwest 338 389 13,600 -1,973 Descending Houston Center
Fri 05:15:35 PM 30.2833 -94.2625 226° Southwest 324 373 12,000 -821 Descending Houston Center
Fri 05:16:37 PM 30.2256 -94.3356 228° Southwest 311 358 12,000  Level Houston Center
Fri 05:17:39 PM 30.1900 -94.4239 245° Southwest 304 350 12,000 -387 Level Houston Center
Fri 05:18:41 PM 30.1556 -94.5119 246° West 305 351 11,200 -1,016 Descending Houston Center
Fri 05:19:43 PM 30.1247 -94.5903 246° West 278 320 9,900 -1,548 Descending Houston Center
Fri 05:20:45 PM 30.0917 -94.6811 247° West 261 300 8,000 -1,370 Descending Houston Center
Fri 05:21:50 PM 30.0633 -94.7686 250° West 262 302 7,000 -864 Descending Houston Center
Fri 05:22:50 PM 30.0428 -94.8411 252° West 263 303 6,200 -787 Descending Houston Center
Fri 05:23:52 PM 30.0175 -94.9211 250° West 265 305 5,400 -581 Descending Houston Center
Fri 05:24:54 PM 29.9964 -94.9978 252° West 259 298 5,000 -435 Descending Houston Center
Fri 05:25:56 PM 29.9942 -95.0750 268° West 245 282 4,500 -927 Descending Houston Center
Fri 05:26:57 PM 29.9925 -95.1542 269° West 188 216 3,100 -1,377 Descending Houston Center

Login

Don't have an account? Register now (free) for customized features, flight alerts, and more!